Time;durP1;ratioP1;P1;durP2;ratioP2;P2;SDS_P1;SDS_P2;PMS_P1;PMS_P2;Temp;Humidity;BMP_temperature;BMP_pressure;BME280_temperature;BME280_humidity;BME280_pressure;Samples;Min_cycle;Max_cycle;Signal;HPM_P1;HPM_P2
2021/07/04 00:02:09;;;;;;;12.63;11.43;;;;;;;;;;3584844;39;20400;-80
2021/07/04 00:04:35;;;;;;;17.37;12.97;;;;;;;;;;3576411;40;20408;-81
2021/07/04 00:07:01;;;;;;;13.67;12.37;;;;;;;;;;3576030;39;20401;-80
2021/07/04 00:09:27;;;;;;;14.63;13.23;;;;;;;;;;3585207;39;20440;-80
2021/07/04 00:11:53;;;;;;;16.63;14.93;;;;;;;;;;3583694;39;20552;-81
2021/07/04 00:14:20;;;;;;;14.37;12.97;;;;;;;;;;3575049;40;20775;-80
2021/07/04 00:16:46;;;;;;;17.20;15.50;;;;;;;;;;3557796;40;21206;-81
2021/07/04 00:19:12;;;;;;;18.10;16.20;;;;;;;;;;3586093;39;20982;-81
2021/07/04 00:21:39;;;;;;;15.73;13.03;;;;;;;;;;3584417;39;20444;-81
2021/07/04 00:24:06;;;;;;;13.67;12.30;;;;;;;;;;3577546;40;20429;-80
2021/07/04 00:26:33;;;;;;;13.87;12.37;;;;;;;;;;3574496;39;20416;-81
2021/07/04 00:28:59;;;;;;;12.43;11.13;;;;;;;;;;3576115;40;20496;-81
2021/07/04 00:31:26;;;;;;;13.00;11.80;;;;;;;;;;3583764;39;20409;-80
2021/07/04 00:33:53;;;;;;;16.33;12.23;;;;;;;;;;3575244;40;20373;-80
2021/07/04 00:36:19;;;;;;;15.93;12.50;;;;;;;;;;3574528;40;22053;-81
2021/07/04 00:38:47;;;;;;;12.87;11.50;;;;;;;;;;3585334;39;21157;-80
2021/07/04 00:41:13;;;;;;;13.93;12.60;;;;;;;;;;3582008;39;20762;-80
2021/07/04 00:43:42;;;;;;;15.43;11.87;;;;;;;;;;3566614;40;20380;-80
2021/07/04 00:46:08;;;;;;;13.63;12.20;;;;;;;;;;3564033;40;20409;-81
2021/07/04 00:48:35;;;;;;;13.57;12.13;;;;;;;;;;3578500;39;20428;-80
2021/07/04 00:51:01;;;;;;;14.80;12.67;;;;;;;;;;3582083;40;20488;-80
2021/07/04 00:53:29;;;;;;;14.03;12.73;;;;;;;;;;3582285;40;20815;-81
2021/07/04 00:55:55;;;;;;;14.60;13.20;;;;;;;;;;3587507;39;20380;-81
2021/07/04 00:58:23;;;;;;;15.10;13.50;;;;;;;;;;3587373;39;20471;-81
2021/07/04 01:00:51;;;;;;;14.07;12.77;;;;;;;;;;3585691;40;20409;-81
2021/07/04 01:03:17;;;;;;;13.50;11.87;;;;;;;;;;3574687;40;20411;-81
2021/07/04 01:05:43;;;;;;;13.70;11.67;;;;;;;;;;3584429;39;20459;-80
2021/07/04 01:08:12;;;;;;;19.97;12.77;;;;;;;;;;3576519;40;20867;-81
2021/07/04 01:10:38;;;;;;;17.50;13.87;;;;;;;;;;3585939;40;20828;-81
2021/07/04 01:13:07;;;;;;;16.30;12.57;;;;;;;;;;3575093;40;21091;-81
2021/07/04 01:15:34;;;;;;;13.97;12.33;;;;;;;;;;3584473;39;20451;-81
2021/07/04 01:18:01;;;;;;;13.73;12.43;;;;;;;;;;3575660;40;21188;-81
2021/07/04 01:20:28;;;;;;;15.70;13.60;;;;;;;;;;3576122;39;20827;-81
2021/07/04 01:22:56;;;;;;;16.93;15.13;;;;;;;;;;3575705;40;20385;-81
2021/07/04 01:25:24;;;;;;;17.97;13.40;;;;;;;;;;3585170;39;20451;-81
2021/07/04 01:27:50;;;;;;;16.10;14.33;;;;;;;;;;3584783;39;20427;-81
2021/07/04 01:30:17;;;;;;;15.93;14.33;;;;;;;;;;3584023;39;20387;-81
2021/07/04 01:32:43;;;;;;;16.23;13.87;;;;;;;;;;3574148;40;20416;-81
2021/07/04 01:35:09;;;;;;;16.57;14.27;;;;;;;;;;3580917;39;20420;-81
2021/07/04 01:37:36;;;;;;;16.03;14.33;;;;;;;;;;3572273;39;20829;-81
2021/07/04 01:40:04;;;;;;;16.20;13.63;;;;;;;;;;3574497;40;22845;-80
2021/07/04 01:42:31;;;;;;;17.90;16.00;;;;;;;;;;3580909;39;20444;-81
2021/07/04 01:45:03;;;;;;;19.00;17.10;;;;;;;;;;3584819;39;20477;-82
2021/07/04 01:47:30;;;;;;;20.77;18.07;;;;;;;;;;3577225;40;20416;-82
2021/07/04 01:49:57;;;;;;;22.03;19.53;;;;;;;;;;3576818;40;21146;-81
2021/07/04 01:52:23;;;;;;;20.60;18.50;;;;;;;;;;3578466;39;20392;-82
2021/07/04 01:54:50;;;;;;;19.77;17.67;;;;;;;;;;3584268;39;20386;-81
2021/07/04 01:57:17;;;;;;;19.63;17.50;;;;;;;;;;3574171;40;20410;-81
2021/07/04 01:59:47;;;;;;;19.70;17.50;;;;;;;;;;3584787;39;20404;-82
2021/07/04 02:02:14;;;;;;;18.97;15.97;;;;;;;;;;3585385;39;20405;-82
2021/07/04 02:04:40;;;;;;;19.07;17.13;;;;;;;;;;3568320;40;20399;-82
2021/07/04 02:07:17;;;;;;;21.37;18.40;;;;;;;;;;3584132;39;20451;-82
2021/07/04 02:09:48;;;;;;;23.03;18.20;;;;;;;;;;3584470;39;20420;-81
2021/07/04 02:12:16;;;;;;;20.53;18.20;;;;;;;;;;3585565;39;20491;-81
2021/07/04 02:14:43;;;;;;;19.60;17.50;;;;;;;;;;3578188;40;20408;-82
2021/07/04 02:17:10;;;;;;;21.13;17.80;;;;;;;;;;3576179;40;20379;-81
2021/07/04 02:19:38;;;;;;;21.93;18.80;;;;;;;;;;3578437;39;20400;-82
2021/07/04 02:22:05;;;;;;;19.10;16.60;;;;;;;;;;3585411;39;20396;-82
2021/07/04 02:24:49;;;;;;;19.73;16.73;;;;;;;;;;3576986;39;20397;-82
2021/07/04 02:27:16;;;;;;;17.20;15.43;;;;;;;;;;3585486;39;20408;-82
2021/07/04 02:29:42;;;;;;;18.20;16.33;;;;;;;;;;3575839;39;20398;-81
2021/07/04 02:32:10;;;;;;;22.00;16.90;;;;;;;;;;3584990;39;20443;-81
2021/07/04 02:34:37;;;;;;;18.80;16.40;;;;;;;;;;3584222;40;20787;-81
2021/07/04 02:37:04;;;;;;;17.07;15.37;;;;;;;;;;3576010;39;20427;-81
2021/07/04 02:39:32;;;;;;;19.43;16.37;;;;;;;;;;3575794;39;20424;-81
2021/07/04 02:41:59;;;;;;;19.83;17.87;;;;;;;;;;3576670;39;20403;-81
2021/07/04 02:44:28;;;;;;;18.10;16.30;;;;;;;;;;3584961;39;20449;-82
2021/07/04 02:46:57;;;;;;;18.37;16.57;;;;;;;;;;3577486;40;20396;-81
2021/07/04 02:49:27;;;;;;;18.00;16.10;;;;;;;;;;3575643;39;20476;-82
2021/07/04 02:51:55;;;;;;;21.23;17.07;;;;;;;;;;3569573;40;20417;-83
2021/07/04 02:54:23;;;;;;;18.70;16.90;;;;;;;;;;3577699;39;20405;-83
2021/07/04 02:57:05;;;;;;;17.13;15.43;;;;;;;;;;3590205;39;21163;-85
2021/07/04 02:59:31;;;;;;;17.07;15.30;;;;;;;;;;3580535;40;20389;-85
2021/07/04 03:07:21;;;;;;;24.07;17.30;;;;;;;;;;3615242;39;20386;-84
2021/07/04 03:10:04;;;;;;;17.00;15.30;;;;;;;;;;3624228;22;20521;-84
2021/07/04 03:12:37;;;;;;;15.93;14.33;;;;;;;;;;3610420;22;20397;-83
2021/07/04 03:15:04;;;;;;;18.10;16.20;;;;;;;;;;3596525;39;20437;-84
2021/07/04 03:17:41;;;;;;;23.47;16.00;;;;;;;;;;3581937;39;20449;-83
2021/07/04 03:20:08;;;;;;;17.50;15.53;;;;;;;;;;3576502;40;20375;-84
2021/07/04 03:22:34;;;;;;;17.50;15.80;;;;;;;;;;3549033;40;20405;-84
2021/07/04 03:25:26;;;;;;;16.13;14.53;;;;;;;;;;3538544;40;20465;-84
2021/07/04 03:27:53;;;;;;;15.93;14.33;;;;;;;;;;3506092;40;21575;-84
2021/07/04 03:30:22;;;;;;;18.30;16.50;;;;;;;;;;3518831;40;20432;-84
2021/07/04 03:32:52;;;;;;;21.30;18.13;;;;;;;;;;3511450;40;21054;-85
2021/07/04 03:35:18;;;;;;;16.93;15.30;;;;;;;;;;3518094;40;20397;-84
2021/07/04 03:37:46;;;;;;;19.83;17.23;;;;;;;;;;3516563;40;21160;-84
2021/07/04 03:40:14;;;;;;;20.60;17.93;;;;;;;;;;3509149;41;20406;-84
2021/07/04 03:42:50;;;;;;;17.60;14.70;;;;;;;;;;3509651;41;20412;-84
2021/07/04 03:45:16;;;;;;;20.63;18.10;;;;;;;;;;3510859;40;20435;-84
2021/07/04 03:47:44;;;;;;;18.53;16.37;;;;;;;;;;3515365;40;20421;-84
2021/07/04 03:50:11;;;;;;;17.93;16.13;;;;;;;;;;3500327;40;20421;-84
2021/07/04 03:52:41;;;;;;;18.43;16.47;;;;;;;;;;3501464;41;21294;-84
2021/07/04 03:55:09;;;;;;;19.03;16.30;;;;;;;;;;3496643;41;21163;-85
2021/07/04 03:57:44;;;;;;;19.97;18.07;;;;;;;;;;3491307;41;20606;-85
2021/07/04 04:00:23;;;;;;;19.70;16.13;;;;;;;;;;3476864;41;20510;-84
2021/07/04 04:02:50;;;;;;;18.27;16.50;;;;;;;;;;3479345;41;20415;-84
2021/07/04 04:05:28;;;;;;;19.33;17.43;;;;;;;;;;3484144;41;20736;-85
2021/07/04 04:07:54;;;;;;;18.67;16.77;;;;;;;;;;3497798;41;20474;-84
2021/07/04 04:10:21;;;;;;;20.47;17.27;;;;;;;;;;3478636;41;20863;-84
2021/07/04 04:12:47;;;;;;;20.73;18.57;;;;;;;;;;3479627;41;21189;-84
2021/07/04 04:15:19;;;;;;;20.17;18.07;;;;;;;;;;3513201;23;20542;-85
2021/07/04 04:17:45;;;;;;;19.13;17.20;;;;;;;;;;3587641;39;21026;-85
2021/07/04 04:20:11;;;;;;;23.60;19.60;;;;;;;;;;3596190;39;20436;-85
2021/07/04 04:22:46;;;;;;;20.47;18.40;;;;;;;;;;3583897;39;20490;-85
2021/07/04 04:25:12;;;;;;;21.20;19.00;;;;;;;;;;3578826;40;20420;-85
2021/07/04 04:27:38;;;;;;;25.53;17.83;;;;;;;;;;3575908;40;21154;-84
2021/07/04 04:30:08;;;;;;;23.13;18.63;;;;;;;;;;3555037;40;20431;-84
2021/07/04 04:32:36;;;;;;;21.13;18.90;;;;;;;;;;3549741;40;20678;-85
2021/07/04 04:35:05;;;;;;;20.37;18.10;;;;;;;;;;3556398;40;20529;-84
2021/07/04 04:37:31;;;;;;;21.70;17.50;;;;;;;;;;3557759;40;20398;-84
2021/07/04 04:40:27;;;;;;;19.90;17.80;;;;;;;;;;3543099;40;20495;-84
2021/07/04 04:42:54;;;;;;;20.27;18.17;;;;;;;;;;3534227;40;20410;-85
2021/07/04 04:45:20;;;;;;;19.70;17.10;;;;;;;;;;3506610;41;20409;-84
2021/07/04 04:47:47;;;;;;;25.60;18.23;;;;;;;;;;3505039;40;20412;-84
2021/07/04 04:50:13;;;;;;;21.93;18.30;;;;;;;;;;3487419;41;21232;-84
2021/07/04 04:52:39;;;;;;;21.60;17.20;;;;;;;;;;3478011;41;20726;-84
2021/07/04 04:55:07;;;;;;;20.37;18.27;;;;;;;;;;3477813;41;20464;-85
2021/07/04 04:57:34;;;;;;;33.73;18.63;;;;;;;;;;3454186;41;20569;-85
2021/07/04 05:02:35;;;;;;;22.90;20.07;;;;;;;;;;3636340;22;20830;-80
2021/07/04 05:05:02;;;;;;;21.30;18.60;;;;;;;;;;3586189;39;20419;-81
2021/07/04 05:07:28;;;;;;;21.80;19.40;;;;;;;;;;3592173;39;20412;-81
2021/07/04 05:09:54;;;;;;;24.10;19.47;;;;;;;;;;3592627;39;20451;-81
2021/07/04 05:12:22;;;;;;;19.70;17.33;;;;;;;;;;3587252;39;20447;-82
2021/07/04 05:14:48;;;;;;;22.40;19.80;;;;;;;;;;3583997;39;20438;-82
2021/07/04 05:17:15;;;;;;;23.47;21.20;;;;;;;;;;3601266;39;20403;-82
2021/07/04 05:19:41;;;;;;;26.77;19.33;;;;;;;;;;3601512;39;20443;-83
2021/07/04 05:22:10;;;;;;;30.30;21.33;;;;;;;;;;3599830;39;20388;-83
2021/07/04 05:24:45;;;;;;;22.20;19.83;;;;;;;;;;3591038;39;20910;-83
2021/07/04 05:27:11;;;;;;;23.47;21.00;;;;;;;;;;3597671;39;20395;-82
2021/07/04 05:29:37;;;;;;;23.97;21.17;;;;;;;;;;3596384;39;20408;-82
2021/07/04 05:32:04;;;;;;;27.90;21.40;;;;;;;;;;3580810;39;21953;-82
2021/07/04 05:34:32;;;;;;;27.73;22.83;;;;;;;;;;3587231;39;20412;-81
2021/07/04 05:37:04;;;;;;;25.30;20.67;;;;;;;;;;3582985;39;20462;-81
2021/07/04 05:39:39;;;;;;;27.20;22.10;;;;;;;;;;3586382;39;20978;-81
2021/07/04 05:42:06;;;;;;;27.20;21.93;;;;;;;;;;3585243;39;21754;-82
2021/07/04 05:44:51;;;;;;;26.77;22.03;;;;;;;;;;3568348;39;20469;-82
2021/07/04 05:47:18;;;;;;;23.97;21.37;;;;;;;;;;3578309;39;21479;-82
2021/07/04 05:49:44;;;;;;;26.20;20.20;;;;;;;;;;3577510;39;21012;-82
2021/07/04 05:52:11;;;;;;;22.93;20.60;;;;;;;;;;3579361;39;20426;-82
2021/07/04 05:54:39;;;;;;;23.60;21.00;;;;;;;;;;3592294;39;20427;-82
2021/07/04 05:57:08;;;;;;;22.83;19.13;;;;;;;;;;3587407;39;20455;-82
2021/07/04 05:59:34;;;;;;;25.17;20.43;;;;;;;;;;3587588;39;20404;-82
2021/07/04 06:02:01;;;;;;;23.00;20.70;;;;;;;;;;3586314;39;20399;-82
2021/07/04 06:04:27;;;;;;;19.97;17.97;;;;;;;;;;3577634;39;20534;-82
2021/07/04 06:06:55;;;;;;;24.87;21.40;;;;;;;;;;3577946;39;20436;-83
2021/07/04 06:09:21;;;;;;;21.77;19.60;;;;;;;;;;3569814;40;20407;-83
2021/07/04 06:11:51;;;;;;;21.20;19.00;;;;;;;;;;3572896;39;20517;-82
2021/07/04 06:14:17;;;;;;;23.00;17.70;;;;;;;;;;3569569;40;20407;-82
2021/07/04 06:16:44;;;;;;;19.07;17.20;;;;;;;;;;3586839;39;20409;-83
2021/07/04 06:19:16;;;;;;;18.97;16.93;;;;;;;;;;3590793;39;21528;-82
2021/07/04 06:21:48;;;;;;;19.40;14.93;;;;;;;;;;3575621;40;20408;-83
2021/07/04 06:24:14;;;;;;;16.07;14.50;;;;;;;;;;3574581;39;20464;-83
2021/07/04 06:26:40;;;;;;;14.97;13.57;;;;;;;;;;3566896;40;20418;-83
2021/07/04 06:29:07;;;;;;;15.03;13.73;;;;;;;;;;3585736;39;20465;-83
2021/07/04 06:31:39;;;;;;;17.73;14.70;;;;;;;;;;3584562;39;21180;-83
2021/07/04 06:34:06;;;;;;;15.57;14.07;;;;;;;;;;3585517;39;20801;-83
2021/07/04 06:36:33;;;;;;;16.97;15.37;;;;;;;;;;3571715;39;20817;-83
2021/07/04 06:38:59;;;;;;;17.13;15.13;;;;;;;;;;3572539;39;20424;-83
2021/07/04 06:41:27;;;;;;;17.20;15.60;;;;;;;;;;3588666;39;20432;-83
2021/07/04 06:43:54;;;;;;;16.23;14.53;;;;;;;;;;3568140;39;20496;-83
2021/07/04 06:46:20;;;;;;;17.07;15.37;;;;;;;;;;3578170;39;20420;-83
2021/07/04 06:48:46;;;;;;;16.43;14.63;;;;;;;;;;3580436;39;20444;-83
2021/07/04 06:51:18;;;;;;;18.17;16.37;;;;;;;;;;3572217;40;20404;-83
2021/07/04 06:53:44;;;;;;;18.90;16.90;;;;;;;;;;3589412;39;20383;-83
2021/07/04 06:56:10;;;;;;;18.10;16.40;;;;;;;;;;3564613;39;20409;-83
2021/07/04 06:58:37;;;;;;;18.60;16.77;;;;;;;;;;3587588;39;20417;-83
2021/07/04 07:01:07;;;;;;;16.73;15.23;;;;;;;;;;3573080;39;20397;-84
2021/07/04 07:03:33;;;;;;;15.70;14.30;;;;;;;;;;3589285;39;20421;-83
2021/07/04 07:05:59;;;;;;;15.87;14.30;;;;;;;;;;3573031;39;20476;-84
2021/07/04 07:08:26;;;;;;;15.47;14.07;;;;;;;;;;3571442;39;21228;-83
2021/07/04 07:10:52;;;;;;;18.40;15.03;;;;;;;;;;3570586;40;20412;-85
2021/07/04 07:13:18;;;;;;;14.90;13.33;;;;;;;;;;3578248;39;20409;-87
2021/07/04 07:15:46;;;;;;;16.13;14.07;;;;;;;;;;3577027;39;20812;-85
2021/07/04 07:18:13;;;;;;;15.97;14.33;;;;;;;;;;3571378;39;20455;-84
2021/07/04 07:20:39;;;;;;;13.57;12.27;;;;;;;;;;3569513;39;20467;-84
2021/07/04 07:23:06;;;;;;;16.27;14.57;;;;;;;;;;3570602;39;22267;-83
2021/07/04 07:25:33;;;;;;;14.90;13.40;;;;;;;;;;3570604;39;20431;-84
2021/07/04 07:28:00;;;;;;;15.53;13.70;;;;;;;;;;3578121;40;20425;-84
2021/07/04 07:30:28;;;;;;;16.53;14.87;;;;;;;;;;3579854;39;20856;-85
2021/07/04 07:32:55;;;;;;;17.53;14.67;;;;;;;;;;3577060;40;20397;-82
2021/07/04 07:35:30;;;;;;;16.03;14.53;;;;;;;;;;3578682;40;20406;-84
2021/07/04 07:37:59;;;;;;;16.40;14.93;;;;;;;;;;3578458;39;20869;-83
2021/07/04 07:40:29;;;;;;;16.77;15.20;;;;;;;;;;3571174;39;20411;-83
2021/07/04 07:42:56;;;;;;;16.37;14.80;;;;;;;;;;3579976;39;20392;-83
2021/07/04 07:45:22;;;;;;;15.93;14.43;;;;;;;;;;3571378;39;20404;-85
2021/07/04 07:47:50;;;;;;;14.47;13.07;;;;;;;;;;3579064;39;20496;-86
2021/07/04 07:50:16;;;;;;;14.90;13.50;;;;;;;;;;3570194;39;20397;-82
2021/07/04 07:52:53;;;;;;;16.60;14.60;;;;;;;;;;3586913;39;20420;-82
2021/07/04 07:55:21;;;;;;;19.50;15.10;;;;;;;;;;3571486;40;20420;-81
2021/07/04 07:57:47;;;;;;;15.73;14.33;;;;;;;;;;3564826;40;20441;-81
2021/07/04 08:00:14;;;;;;;14.90;13.50;;;;;;;;;;3581095;40;20433;-81
2021/07/04 08:02:41;;;;;;;16.93;15.43;;;;;;;;;;3573275;39;20420;-81
2021/07/04 08:05:09;;;;;;;16.23;14.73;;;;;;;;;;3589040;39;20412;-85
2021/07/04 08:07:37;;;;;;;16.10;14.60;;;;;;;;;;3602651;39;20406;-83
2021/07/04 08:10:04;;;;;;;15.40;13.97;;;;;;;;;;3588561;39;20392;-81
2021/07/04 08:12:31;;;;;;;15.87;14.17;;;;;;;;;;3596343;39;20400;-82
2021/07/04 08:14:58;;;;;;;15.63;14.20;;;;;;;;;;3580479;39;20407;-81
2021/07/04 08:17:24;;;;;;;14.97;13.47;;;;;;;;;;3573094;39;20407;-82
2021/07/04 08:19:50;;;;;;;13.80;12.50;;;;;;;;;;3572344;39;20433;-81
2021/07/04 08:22:18;;;;;;;12.87;11.70;;;;;;;;;;3587900;39;21369;-83
2021/07/04 08:24:45;;;;;;;12.87;11.77;;;;;;;;;;3582028;39;20396;-85
2021/07/04 08:27:11;;;;;;;11.80;10.73;;;;;;;;;;3595165;39;20395;-80
2021/07/04 08:29:43;;;;;;;12.80;11.60;;;;;;;;;;3593992;39;20404;-81
2021/07/04 08:32:09;;;;;;;14.20;12.67;;;;;;;;;;3575883;39;20448;-82
2021/07/04 08:34:35;;;;;;;13.00;11.70;;;;;;;;;;3595164;39;20403;-82
2021/07/04 08:37:02;;;;;;;13.33;12.27;;;;;;;;;;3586255;39;20501;-82
2021/07/04 08:39:28;;;;;;;15.17;13.97;;;;;;;;;;3588820;39;20444;-82
2021/07/04 08:41:54;;;;;;;13.27;12.07;;;;;;;;;;3601375;39;20393;-83
2021/07/04 08:44:26;;;;;;;14.60;13.33;;;;;;;;;;3595364;39;20435;-83
2021/07/04 08:46:52;;;;;;;12.97;11.73;;;;;;;;;;3595168;39;20755;-83
2021/07/04 08:49:19;;;;;;;11.97;10.87;;;;;;;;;;3587447;39;20392;-83
2021/07/04 08:51:47;;;;;;;14.43;13.13;;;;;;;;;;3597869;39;20452;-83
2021/07/04 08:54:15;;;;;;;12.50;10.90;;;;;;;;;;3597197;39;20408;-82
2021/07/04 08:56:50;;;;;;;11.17;10.17;;;;;;;;;;3602997;39;20427;-83
2021/07/04 08:59:44;;;;;;;11.63;10.73;;;;;;;;;;3593301;39;20371;-83
2021/07/04 09:02:11;;;;;;;11.27;10.10;;;;;;;;;;3570966;39;20456;-83
2021/07/04 09:04:37;;;;;;;9.10;8.40;;;;;;;;;;3586778;39;20532;-83
2021/07/04 09:07:32;;;;;;;11.63;10.60;;;;;;;;;;3587505;39;20415;-83
2021/07/04 09:10:00;;;;;;;12.90;11.60;;;;;;;;;;3586760;39;20389;-83
2021/07/04 09:12:35;;;;;;;12.13;11.00;;;;;;;;;;3593806;39;20416;-83
2021/07/04 09:15:08;;;;;;;11.87;10.87;;;;;;;;;;3594471;39;20441;-83
2021/07/04 09:17:34;;;;;;;13.33;10.93;;;;;;;;;;3585671;39;20717;-83
2021/07/04 09:20:16;;;;;;;11.80;10.80;;;;;;;;;;3595062;39;20442;-83
2021/07/04 09:22:51;;;;;;;10.63;9.73;;;;;;;;;;3596464;39;20471;-83
2021/07/04 09:25:19;;;;;;;10.50;9.60;;;;;;;;;;3594693;39;20416;-83
2021/07/04 09:28:05;;;;;;;9.97;9.10;;;;;;;;;;3593343;39;20880;-83
2021/07/04 09:30:38;;;;;;;12.53;11.43;;;;;;;;;;3611595;39;20550;-84
2021/07/04 09:33:25;;;;;;;11.30;10.40;;;;;;;;;;3584173;39;20420;-83
2021/07/04 09:35:52;;;;;;;11.27;10.20;;;;;;;;;;3603865;39;20473;-82
2021/07/04 09:38:20;;;;;;;9.60;8.80;;;;;;;;;;3601845;39;20461;-83
2021/07/04 09:40:47;;;;;;;9.67;8.83;;;;;;;;;;3577806;40;20395;-81
2021/07/04 09:43:16;;;;;;;11.07;10.10;;;;;;;;;;3601000;39;20458;-82
2021/07/04 09:45:54;;;;;;;10.23;9.33;;;;;;;;;;3580083;39;20407;-82
2021/07/04 09:48:31;;;;;;;11.13;10.20;;;;;;;;;;3577469;39;20416;-82
2021/07/04 09:51:00;;;;;;;11.63;10.63;;;;;;;;;;3596373;39;21093;-82
2021/07/04 09:53:37;;;;;;;12.03;11.00;;;;;;;;;;3597073;39;20411;-81
2021/07/04 09:56:14;;;;;;;11.90;11.00;;;;;;;;;;3583287;39;20407;-82
2021/07/04 09:58:42;;;;;;;9.53;8.83;;;;;;;;;;3585904;39;20446;-81
2021/07/04 10:01:30;;;;;;;12.23;11.20;;;;;;;;;;3599416;39;21051;-82
2021/07/04 10:03:56;;;;;;;9.90;9.10;;;;;;;;;;3577927;39;20495;-81
2021/07/04 10:06:43;;;;;;;10.00;9.20;;;;;;;;;;3595242;39;20432;-81
2021/07/04 10:09:10;;;;;;;11.20;10.10;;;;;;;;;;3597164;39;20407;-82
2021/07/04 10:11:35;;;;;;;6.23;5.37;;;13.50;99.90;;;;;;3576311;39;20423;-80
2021/07/04 10:14:02;;;;;;;8.17;6.20;;;;;;;;;;3567391;39;20423;-79
2021/07/04 10:16:28;;;;;;;5.87;5.30;;;;;;;;;;3592137;39;20233;-79
2021/07/04 10:18:57;;;;;;;6.20;4.83;;;;;;;;;;3591183;39;20424;-79
2021/07/04 10:21:24;;;;;;;5.47;5.07;;;;;;;;;;3583355;39;20455;-79
2021/07/04 10:23:51;;;;;;;6.00;5.40;;;;;;;;;;3589494;39;20416;-79
2021/07/04 10:26:18;;;;;;;5.50;5.10;;;;;;;;;;3595819;39;20430;-79
2021/07/04 10:28:45;;;;;;;8.50;5.20;;;;;;;;;;3573489;39;21281;-79
2021/07/04 10:31:16;;;;;;;8.87;8.03;;;;;;;;;;3588966;39;20550;-79
2021/07/04 10:33:43;;;;;;;7.93;7.10;;;;;;;;;;3585376;39;20510;-78
2021/07/04 10:36:11;;;;;;;7.07;6.43;;;;;;;;;;3589881;39;20716;-77
2021/07/04 10:38:47;;;;;;;8.30;7.50;;;;;;;;;;3588270;39;21166;-78
2021/07/04 10:41:15;;;;;;;8.43;7.63;;;;;;;;;;3580954;39;20406;-78
2021/07/04 10:43:49;;;;;;;10.63;7.30;;;;;;;;;;3585754;39;20412;-78
2021/07/04 10:46:15;;;;;;;8.70;8.00;;;;;;;;;;3595944;39;20408;-79
2021/07/04 10:48:57;;;;;;;9.27;8.37;;;;;;;;;;3589721;39;20420;-79
2021/07/04 10:51:23;;;;;;;9.00;7.30;;;;;;;;;;3563550;39;20404;-80
2021/07/04 10:53:50;;;;;;;9.43;8.10;;;;;;;;;;3597277;39;20423;-80
2021/07/04 10:56:35;;;;;;;6.37;5.87;;;;;;;;;;3587445;39;20439;-80
2021/07/04 10:59:02;;;;;;;5.90;5.50;;;;;;;;;;3597147;39;21234;-81
2021/07/04 11:01:47;;;;;;;7.10;5.50;;;;;;;;;;3596893;39;20412;-81
2021/07/04 11:04:28;;;;;;;6.20;5.63;;;;;;;;;;3590506;39;20428;-81
2021/07/04 11:06:57;;;;;;;6.83;6.33;;;;;;;;;;3597360;39;20471;-81
2021/07/04 11:09:24;;;;;;;6.90;6.50;;;;;;;;;;3597129;39;20447;-81
2021/07/04 11:11:51;;;;;;;6.90;6.50;;;;;;;;;;3597230;39;20434;-81
2021/07/04 11:14:19;;;;;;;6.57;6.10;;;;;;;;;;3586053;39;20449;-81
2021/07/04 11:17:04;;;;;;;6.53;6.03;;;;;;;;;;3585057;39;20404;-81
2021/07/04 11:19:31;;;;;;;6.37;5.87;;;;;;;;;;3592705;39;21524;-81
2021/07/04 11:21:57;;;;;;;6.30;5.90;;;;;;;;;;3583900;39;20396;-80
2021/07/04 11:24:25;;;;;;;5.83;5.43;;;;;;;;;;3592191;39;20463;-80
2021/07/04 11:27:10;;;;;;;6.70;6.20;;;;;;;;;;3583004;39;20431;-80
2021/07/04 11:29:37;;;;;;;6.30;5.70;;;;;;;;;;3586532;39;20420;-80
2021/07/04 11:32:22;;;;;;;7.40;6.90;;;;;;;;;;3584196;39;20497;-80
2021/07/04 11:34:49;;;;;;;6.93;5.93;;;;;;;;;;3576222;39;20403;-80
2021/07/04 11:37:15;;;;;;;6.90;6.40;;;;;;;;;;3577217;39;20446;-80
2021/07/04 11:39:41;;;;;;;7.30;6.80;;;;;;;;;;3577972;39;20435;-80
2021/07/04 11:42:07;;;;;;;6.43;5.93;;;;;;;;;;3587052;39;20440;-80
2021/07/04 11:44:35;;;;;;;6.40;6.00;;;;;;;;;;3589105;39;20474;-81
2021/07/04 11:47:02;;;;;;;7.70;7.20;;;;;;;;;;3579539;39;20420;-80
2021/07/04 11:49:28;;;;;;;8.97;8.30;;;;;;;;;;3591053;39;20431;-81
2021/07/04 11:51:58;;;;;;;9.80;9.00;;;;;;;;;;3582639;39;21223;-80
2021/07/04 11:54:26;;;;;;;11.23;10.23;;;;;;;;;;3597748;39;21076;-81
2021/07/04 11:57:29;;;;;;;11.63;9.73;;;;;;;;;;3591684;39;20400;-81
2021/07/04 11:59:51;;;;;;;10.17;9.37;;;;;;;;;;3590591;39;20418;-81
2021/07/04 12:02:17;;;;;;;10.33;9.40;;;;;;;;;;3592651;39;20400;-85
2021/07/04 12:04:45;;;;;;;10.20;9.20;;;;;;;;;;3574013;39;20419;-86
2021/07/04 12:07:12;;;;;;;10.00;9.10;;;;;;;;;;3573615;39;20523;-83
2021/07/04 12:09:46;;;;;;;8.27;7.57;;;;;;;;;;3589618;39;20420;-83
2021/07/04 12:12:16;;;;;;;7.63;7.03;;;;;;;;;;3582564;39;21109;-82
2021/07/04 12:14:43;;;;;;;9.20;8.50;;;;;;;;;;3574054;39;20411;-83
2021/07/04 12:17:22;;;;;;;6.90;6.40;;;;;;;;;;3591843;39;20460;-80
2021/07/04 12:19:56;;;;;;;7.73;7.00;;;;;;;;;;3584904;39;20442;-80
2021/07/04 12:22:27;;;;;;;7.37;6.07;;;;;;;;;;3582337;39;20392;-81
2021/07/04 12:24:53;;;;;;;6.67;6.07;;;;;;;;;;3578808;39;20439;-81
2021/07/04 12:27:32;;;;;;;8.07;7.43;;;;;;;;;;3583003;39;20423;-81
2021/07/04 12:30:07;;;;;;;7.43;6.70;;;;;;;;;;3584642;39;20443;-80
2021/07/04 12:32:52;;;;;;;7.37;6.80;;;;;;;;;;3584630;39;20419;-82
2021/07/04 12:35:29;;;;;;;10.03;8.67;;;;;;;;;;3593378;39;20428;-81
2021/07/04 12:37:57;;;;;;;10.27;9.47;;;;;;;;;;3583070;39;20448;-82
2021/07/04 12:40:34;;;;;;;10.60;9.73;;;;;;;;;;3585033;39;20482;-82
2021/07/04 12:43:21;;;;;;;11.57;10.63;;;;;;;;;;3583931;39;20823;-83
2021/07/04 12:45:51;;;;;;;13.17;10.87;;;;;;;;;;3582579;39;20403;-85
2021/07/04 12:48:23;;;;;;;11.33;10.07;;;;;;;;;;3575755;39;20415;-83
2021/07/04 12:50:56;;;;;;;11.33;10.30;;;;;;;;;;3587188;39;20769;-83
2021/07/04 12:53:43;;;;;;;9.90;9.10;;;;;;;;;;3587806;39;20392;-83
2021/07/04 12:56:23;;;;;;;9.17;8.37;;;;;;;;;;3594307;39;20415;-82
2021/07/04 12:58:53;;;;;;;8.77;8.10;;;;;;;;;;3601243;39;20489;-82
2021/07/04 13:01:21;;;;;;;8.70;8.00;;;;;;;;;;3595322;39;20422;-83
2021/07/04 13:03:48;;;;;;;8.17;7.50;;;;;;;;;;3588070;39;20744;-82
2021/07/04 13:06:33;;;;;;;8.23;7.43;;;;;;;;;;3601969;39;20431;-83
2021/07/04 13:09:10;;;;;;;9.10;8.23;;;;;;;;;;3602472;39;20607;-83
2021/07/04 13:11:36;;;;;;;7.43;6.93;;;;;;;;;;3587113;39;20419;-83
2021/07/04 13:14:04;;;;;;;8.53;7.83;;;;;;;;;;3597519;39;20843;-82
2021/07/04 13:16:49;;;;;;;7.70;7.00;;;;;;;;;;3593741;39;20420;-82
2021/07/04 13:19:24;;;;;;;8.90;7.93;;;;;;;;;;3601154;39;20435;-82
2021/07/04 13:21:51;;;;;;;7.97;7.33;;;;;;;;;;3592825;39;20482;-81
2021/07/04 13:24:28;;;;;;;7.90;7.10;;;;;;;;;;3583752;39;20419;-82
2021/07/04 13:26:59;;;;;;;6.90;6.30;;;;;;;;;;3598646;39;20400;-82
2021/07/04 13:29:28;;;;;;;7.73;7.13;;;;;;;;;;3587930;39;20411;-82
2021/07/04 13:32:07;;;;;;;7.47;6.17;;;;;;;;;;3588450;39;20515;-82
2021/07/04 13:34:33;;;;;;;5.20;4.70;;;;;;;;;;3601445;39;20392;-81
2021/07/04 13:37:00;;;;;;;5.20;4.57;;;;;;;;;;3576997;39;20404;-81
2021/07/04 13:39:26;;;;;;;4.00;3.70;;;;;;;;;;3595104;39;20407;-81
2021/07/04 13:41:53;;;;;;;4.23;3.27;;;;;;;;;;3586530;39;20424;-83
2021/07/04 13:44:19;;;;;;;2.83;2.60;;;;;;;;;;3594234;39;21176;-83
2021/07/04 13:46:46;;;;;;;3.07;2.87;;;;;;;;;;3594257;39;20400;-80
2021/07/04 13:49:14;;;;;;;2.60;2.40;;;;;;;;;;3595300;39;20412;-82
2021/07/04 13:51:41;;;;;;;2.10;1.97;;;;;;;;;;3591520;39;20419;-84
2021/07/04 13:54:24;;;;;;;2.50;2.30;;;;;;;;;;3578954;39;20388;-84
2021/07/04 13:56:51;;;;;;;2.30;2.10;;;;;;;;;;3588519;39;20498;-87
2021/07/04 14:00:17;;;;;;;2.40;2.10;;;;;;;;;;3575160;40;20417;-85
2021/07/04 14:07:13;;;;;;;2.30;2.10;;;;;;;;;;3551889;40;20428;-86
2021/07/04 14:45:03;;;;;;;2.47;1.90;;;;;;;;;;3465708;41;21164;-83
2021/07/04 14:48:00;;;;;;;2.20;1.90;;;;;;;;;;3456549;41;20443;-82
2021/07/04 14:57:47;;;;;;;;;;;;;;;;;;;;;
2021/07/04 15:18:09;;;;;;;;;;;;;;;;;;;;;
2021/07/04 15:41:42;;;;;;;3.87;1.90;;;;;;;;;;3527341;40;20406;-83
2021/07/04 15:44:10;;;;;;;2.20;1.60;;;;;;;;;;3520868;40;20435;-78
2021/07/04 15:46:40;;;;;;;3.43;1.70;;;;;;;;;;3512474;40;20824;-80
2021/07/04 15:49:07;;;;;;;2.50;1.50;;;;;;;;;;3529824;40;20723;-80
2021/07/04 15:51:34;;;;;;;1.80;1.57;;;;;;;;;;3530214;40;20420;-81
2021/07/04 15:54:00;;;;;;;1.70;1.60;;;;;;;;;;3544084;40;20420;-80
2021/07/04 15:56:26;;;;;;;2.50;1.47;;;;;;;;;;3544581;40;21128;-79
2021/07/04 15:58:52;;;;;;;2.17;1.60;;;;;;;;;;3543296;40;20403;-79
2021/07/04 16:01:22;;;;;;;1.40;1.20;;;;;;;;;;3546906;40;20412;-81
2021/07/04 16:03:54;;;;;;;1.27;1.17;;;;;;;;;;3547908;40;20402;-80
2021/07/04 16:06:24;;;;;;;1.57;1.47;;;;;;;;;;3537315;40;20440;-80
2021/07/04 16:08:54;;;;;;;1.43;1.10;;;;;;;;;;3578041;39;20407;-80
2021/07/04 16:11:20;;;;;;;2.33;1.43;;;;;;;;;;3585231;39;20462;-80
2021/07/04 16:13:46;;;;;;;1.50;1.40;;;;;;;;;;3572051;39;20469;-80
2021/07/04 16:16:12;;;;;;;2.33;0.90;;;;;;;;;;3590933;39;20412;-80